Time;durP1;ratioP1;P1;durP2;ratioP2;P2;SDS_P1;SDS_P2;PMS_P1;PMS_P2;Temp;Humidity;BMP_temperature;BMP_pressure;BME280_temperature;BME280_humidity;BME280_pressure;Samples;Min_cycle;Max_cycle;Signal;HPM_P1;HPM_P2
2022/08/20 00:02:14;;;;;;;4.55;3.65;;;23.20;99.90;;;;;;5115991;27;20225;-41
2022/08/20 00:04:44;;;;;;;5.93;4.35;;;23.20;99.90;;;;;;5100540;27;20205;-41
2022/08/20 00:07:13;;;;;;;5.05;3.70;;;23.10;99.90;;;;;;5101085;27;20197;-41
2022/08/20 00:09:42;;;;;;;3.83;3.53;;;23.10;99.90;;;;;;5107814;27;20198;-41
2022/08/20 00:12:13;;;;;;;6.43;3.95;;;23.00;99.90;;;;;;5112877;27;20202;-37
2022/08/20 00:14:43;;;;;;;4.53;3.80;;;23.00;99.90;;;;;;5113831;27;20672;-37
2022/08/20 00:17:12;;;;;;;5.18;3.58;;;23.00;99.90;;;;;;5102969;27;20308;-38
2022/08/20 00:19:40;;;;;;;3.58;3.20;;;22.90;99.90;;;;;;5107916;27;20243;-37
2022/08/20 00:22:12;;;;;;;4.40;3.50;;;22.90;99.90;;;;;;5119110;27;20763;-37
2022/08/20 00:24:40;;;;;;;3.67;3.15;;;22.90;99.90;;;;;;5104584;27;20240;-37
2022/08/20 00:27:09;;;;;;;3.63;3.25;;;22.90;99.90;;;;;;5122760;27;20206;-37
2022/08/20 00:29:36;;;;;;;4.07;3.10;;;22.80;99.90;;;;;;5113808;27;20202;-37
2022/08/20 00:32:04;;;;;;;5.13;3.60;;;22.80;99.90;;;;;;5089359;27;20684;-37
2022/08/20 00:34:31;;;;;;;5.35;4.20;;;22.70;99.90;;;;;;5114483;27;20210;-37
2022/08/20 00:36:58;;;;;;;5.80;3.40;;;22.70;99.90;;;;;;5118179;27;20755;-37
2022/08/20 00:39:28;;;;;;;4.95;3.88;;;22.70;99.90;;;;;;5117474;27;20205;-37
2022/08/20 00:41:57;;;;;;;7.15;3.90;;;22.70;99.90;;;;;;5111563;27;20424;-37
2022/08/20 00:44:24;;;;;;;4.55;3.90;;;22.60;99.90;;;;;;5111330;27;21968;-37
2022/08/20 00:46:54;;;;;;;5.30;3.72;;;22.60;99.90;;;;;;5116500;27;20220;-37
2022/08/20 00:49:25;;;;;;;4.53;3.60;;;22.50;99.90;;;;;;5121188;27;20206;-37
2022/08/20 00:52:02;;;;;;;3.65;3.30;;;22.50;99.90;;;;;;5118288;27;20308;-38
2022/08/20 00:54:47;;;;;;;3.85;3.45;;;22.50;99.90;;;;;;5118627;27;20234;-37
2022/08/20 00:57:28;;;;;;;4.55;3.38;;;22.40;99.90;;;;;;5119090;27;20320;-37
2022/08/20 01:00:24;;;;;;;5.15;3.55;;;22.30;99.90;;;;;;5107816;27;20198;-37
2022/08/20 01:02:51;;;;;;;6.75;3.75;;;22.30;99.90;;;;;;5098107;28;20212;-37
2022/08/20 01:05:22;;;;;;;4.18;2.97;;;22.20;99.90;;;;;;5085978;27;20209;-38
2022/08/20 01:07:56;;;;;;;3.80;2.88;;;22.20;99.90;;;;;;5107525;27;20217;-38
2022/08/20 01:10:30;;;;;;;6.07;3.20;;;22.20;99.90;;;;;;5109802;27;20240;-37
2022/08/20 01:12:59;;;;;;;5.38;2.90;;;22.10;99.90;;;;;;5113678;27;20650;-38
2022/08/20 01:15:31;;;;;;;3.97;3.25;;;22.10;99.90;;;;;;5071040;27;20210;-38
2022/08/20 01:18:01;;;;;;;6.85;3.35;;;22.00;99.90;;;;;;5114180;27;20288;-37
2022/08/20 01:20:38;;;;;;;6.72;3.50;;;22.00;99.90;;;;;;5098039;27;20542;-41
2022/08/20 01:23:31;;;;;;;4.28;2.80;;;22.00;99.90;;;;;;5114016;27;20289;-41
2022/08/20 01:26:04;;;;;;;5.72;3.20;;;22.00;99.90;;;;;;5119714;27;20224;-41
2022/08/20 01:28:44;;;;;;;5.05;3.35;;;21.90;99.90;;;;;;5123490;27;20202;-41
2022/08/20 01:31:16;;;;;;;4.68;3.35;;;21.90;99.90;;;;;;5100328;28;20292;-41
2022/08/20 01:33:49;;;;;;;4.38;2.80;;;21.80;99.90;;;;;;5105695;28;20213;-41
2022/08/20 01:36:23;;;;;;;4.57;3.00;;;21.90;99.90;;;;;;5107088;28;20198;-41
2022/08/20 01:38:53;;;;;;;4.63;3.05;;;21.80;99.90;;;;;;5121116;28;20237;-41
2022/08/20 01:41:21;;;;;;;5.53;3.25;;;21.80;99.90;;;;;;5114009;28;20197;-42
2022/08/20 01:43:58;;;;;;;4.40;2.83;;;21.80;99.90;;;;;;5092253;28;20451;-42
2022/08/20 01:46:35;;;;;;;5.78;2.78;;;21.70;99.90;;;;;;5110392;28;20756;-40
2022/08/20 01:49:22;;;;;;;3.92;2.67;;;21.70;99.90;;;;;;5117925;27;20279;-41
2022/08/20 01:51:54;;;;;;;5.15;2.88;;;21.70;99.90;;;;;;5125479;27;20292;-41
2022/08/20 01:54:26;;;;;;;4.28;2.33;;;21.60;99.90;;;;;;5097463;27;20213;-41
2022/08/20 01:56:53;;;;;;;5.13;2.72;;;21.50;99.90;;;;;;5110747;27;20202;-41
2022/08/20 01:59:21;;;;;;;9.65;2.75;;;21.50;99.90;;;;;;5119863;27;20321;-41
2022/08/20 02:01:51;;;;;;;4.70;2.67;;;21.40;99.90;;;;;;5098785;27;20598;-41
2022/08/20 02:04:19;;;;;;;7.65;2.88;;;21.40;99.90;;;;;;5104245;27;20232;-41
2022/08/20 02:06:53;;;;;;;5.93;2.78;;;21.40;99.90;;;;;;5102331;27;20210;-41
2022/08/20 02:09:33;;;;;;;7.40;2.80;;;21.30;99.90;;;;;;5123997;27;20193;-41
2022/08/20 02:12:04;;;;;;;6.20;2.92;;;21.30;99.90;;;;;;5095002;28;20274;-41
2022/08/20 02:14:35;;;;;;;5.57;2.50;;;21.30;99.90;;;;;;5113087;27;20225;-41
2022/08/20 02:17:03;;;;;;;6.85;2.67;;;21.20;99.90;;;;;;5096319;27;20753;-41
2022/08/20 02:19:40;;;;;;;8.75;2.72;;;21.20;99.90;;;;;;5102088;27;20475;-41
2022/08/20 02:22:17;;;;;;;7.93;2.75;;;21.10;99.90;;;;;;5110840;27;20217;-41
2022/08/20 02:24:44;;;;;;;5.03;2.47;;;21.10;99.90;;;;;;5093651;27;20312;-41
2022/08/20 02:27:12;;;;;;;9.80;2.78;;;21.10;99.90;;;;;;5117612;27;20229;-40
2022/08/20 02:29:40;;;;;;;8.38;2.90;;;21.00;99.90;;;;;;5122074;27;20233;-40
2022/08/20 02:32:10;;;;;;;7.88;2.72;;;21.00;99.90;;;;;;5117506;27;20210;-40
2022/08/20 02:35:02;;;;;;;6.68;2.60;;;20.90;99.90;;;;;;5097757;27;20201;-40
2022/08/20 02:37:32;;;;;;;5.90;2.17;;;20.90;99.90;;;;;;5110869;27;20198;-41
2022/08/20 02:39:59;;;;;;;7.75;2.75;;;20.90;99.90;;;;;;5109766;27;20241;-41
2022/08/20 02:42:29;;;;;;;9.38;3.22;;;20.90;99.90;;;;;;5114734;27;20205;-37
2022/08/20 02:44:58;;;;;;;7.53;3.25;;;20.80;99.90;;;;;;5115637;27;20753;-37
2022/08/20 02:47:26;;;;;;;6.55;2.65;;;20.80;99.90;;;;;;5109617;27;20284;-37
2022/08/20 02:49:58;;;;;;;7.23;2.80;;;20.80;99.90;;;;;;5120438;27;20357;-41
2022/08/20 02:52:26;;;;;;;5.90;2.42;;;20.70;99.90;;;;;;5119181;27;20247;-41
2022/08/20 02:54:55;;;;;;;7.97;3.22;;;20.70;99.90;;;;;;5101175;27;20296;-37
2022/08/20 02:57:23;;;;;;;7.88;2.60;;;20.70;99.90;;;;;;5125458;27;21215;-37
2022/08/20 02:59:53;;;;;;;8.73;2.53;;;20.70;99.90;;;;;;5115671;27;20231;-37
2022/08/20 03:02:20;;;;;;;7.40;2.80;;;20.70;99.90;;;;;;5122540;27;20209;-37
2022/08/20 03:04:47;;;;;;;7.88;2.67;;;20.70;99.90;;;;;;5111005;27;20698;-37
2022/08/20 03:07:17;;;;;;;8.93;2.90;;;20.60;99.90;;;;;;5108586;27;20251;-37
2022/08/20 03:09:46;;;;;;;7.03;2.40;;;20.60;99.90;;;;;;5119514;27;20189;-37
2022/08/20 03:12:18;;;;;;;9.00;2.45;;;20.60;99.90;;;;;;5124420;27;20198;-37
2022/08/20 03:14:48;;;;;;;7.32;2.83;;;20.50;99.90;;;;;;5106145;27;20289;-37
2022/08/20 03:17:15;;;;;;;6.85;3.38;;;20.50;99.90;;;;;;5119450;27;20239;-37
2022/08/20 03:19:44;;;;;;;8.18;3.00;;;20.50;99.90;;;;;;5115581;27;20662;-37
2022/08/20 03:22:11;;;;;;;11.45;3.03;;;20.40;99.90;;;;;;5111952;27;20665;-37
2022/08/20 03:24:41;;;;;;;7.18;3.30;;;20.40;99.90;;;;;;5106658;27;20301;-37
2022/08/20 03:27:08;;;;;;;7.93;2.90;;;20.40;99.90;;;;;;5130085;27;20656;-37
2022/08/20 03:29:40;;;;;;;8.50;2.90;;;20.40;99.90;;;;;;5112866;27;20194;-37
2022/08/20 03:32:07;;;;;;;10.57;3.80;;;20.40;99.90;;;;;;5093130;27;20218;-37
2022/08/20 03:34:36;;;;;;;7.22;3.25;;;20.40;99.90;;;;;;5119550;27;21061;-37
2022/08/20 03:37:04;;;;;;;8.38;2.88;;;20.40;99.90;;;;;;5100013;27;20332;-37
2022/08/20 03:39:33;;;;;;;7.28;2.90;;;20.30;99.90;;;;;;5124928;27;20197;-37
2022/08/20 03:42:03;;;;;;;5.63;3.22;;;20.30;99.90;;;;;;5129823;27;20218;-37
2022/08/20 03:44:30;;;;;;;7.88;3.58;;;20.20;99.90;;;;;;5120940;27;20587;-37
2022/08/20 03:46:58;;;;;;;9.98;3.28;;;20.20;99.90;;;;;;5109988;27;20289;-38
2022/08/20 03:49:25;;;;;;;7.70;2.97;;;20.20;99.90;;;;;;5121015;27;20233;-37
2022/08/20 03:51:52;;;;;;;6.40;3.10;;;20.20;99.90;;;;;;5101314;27;20305;-37
2022/08/20 03:54:29;;;;;;;7.03;3.00;;;20.20;99.90;;;;;;5111415;27;20201;-37
2022/08/20 03:56:59;;;;;;;7.95;3.30;;;20.20;99.90;;;;;;5117926;27;20586;-37
2022/08/20 03:59:31;;;;;;;11.27;3.90;;;20.20;99.90;;;;;;5121348;27;20281;-37
2022/08/20 04:01:59;;;;;;;8.23;2.80;;;20.10;99.90;;;;;;5114132;27;20821;-37
2022/08/20 04:04:31;;;;;;;9.73;3.55;;;20.20;99.90;;;;;;5114616;27;20291;-37
2022/08/20 04:07:16;;;;;;;11.02;3.53;;;20.20;99.90;;;;;;5109114;27;20694;-37
2022/08/20 04:09:46;;;;;;;13.38;4.10;;;20.10;99.90;;;;;;5108973;27;20619;-37
2022/08/20 04:12:13;;;;;;;9.57;3.35;;;20.20;99.90;;;;;;5119722;27;20198;-37
2022/08/20 04:14:40;;;;;;;8.27;3.53;;;20.20;99.90;;;;;;5111327;27;20206;-37
2022/08/20 04:17:10;;;;;;;9.10;3.78;;;20.20;99.90;;;;;;5115852;27;20220;-37
2022/08/20 04:19:46;;;;;;;10.95;3.30;;;20.10;99.90;;;;;;5109566;27;20201;-37
2022/08/20 04:22:16;;;;;;;9.88;3.85;;;20.10;99.90;;;;;;5113681;27;20198;-37
2022/08/20 04:24:45;;;;;;;8.32;3.67;;;20.10;99.90;;;;;;5087540;28;20214;-37
2022/08/20 04:27:15;;;;;;;13.10;3.60;;;20.10;99.90;;;;;;5120794;27;20303;-37
2022/08/20 04:29:44;;;;;;;11.63;3.55;;;20.10;99.90;;;;;;5092417;27;20699;-37
2022/08/20 04:32:14;;;;;;;7.25;3.55;;;20.10;99.90;;;;;;5124763;27;20789;-38
2022/08/20 04:34:46;;;;;;;9.10;3.72;;;20.10;99.90;;;;;;5101831;27;20679;-38
2022/08/20 04:37:20;;;;;;;11.27;4.10;;;20.10;99.90;;;;;;5111271;27;20228;-38
2022/08/20 04:40:52;;;;;;;8.50;4.32;;;20.10;99.90;;;;;;5113544;27;20186;-37
2022/08/20 04:42:38;;;;;;;7.65;3.85;;;20.00;99.90;;;;;;5109730;27;20202;-37
2022/08/20 04:45:11;;;;;;;10.52;3.75;;;20.00;99.90;;;;;;5106555;27;20709;-37
2022/08/20 04:47:38;;;;;;;10.43;4.40;;;20.00;99.90;;;;;;5112277;27;20517;-37
2022/08/20 04:50:08;;;;;;;10.45;4.47;;;20.00;99.90;;;;;;5116123;27;20201;-37
2022/08/20 04:52:39;;;;;;;9.98;3.90;;;20.00;99.90;;;;;;5123529;27;20560;-37
2022/08/20 04:55:07;;;;;;;9.30;4.40;;;19.90;99.90;;;;;;5099911;27;20219;-37
2022/08/20 04:57:37;;;;;;;11.23;4.47;;;19.90;99.90;;;;;;5129756;27;20591;-38
2022/08/20 05:00:13;;;;;;;11.00;4.85;;;19.90;99.90;;;;;;5115814;27;20202;-38
2022/08/20 05:02:40;;;;;;;12.17;4.83;;;19.90;99.90;;;;;;5117768;27;20292;-38
2022/08/20 05:05:11;;;;;;;11.48;4.63;;;19.80;99.90;;;;;;5118783;27;20221;-37
2022/08/20 05:07:43;;;;;;;13.20;4.72;;;19.80;99.90;;;;;;5122296;27;20199;-38
2022/08/20 05:10:18;;;;;;;8.75;4.43;;;19.80;99.90;;;;;;5099844;27;20216;-38
2022/08/20 05:12:49;;;;;;;13.40;5.20;;;19.70;99.90;;;;;;5130286;27;20295;-37
2022/08/20 05:15:26;;;;;;;11.50;4.85;;;19.70;99.90;;;;;;5112287;27;20286;-38
2022/08/20 05:18:02;;;;;;;9.05;4.85;;;19.70;99.90;;;;;;5115365;27;20262;-38
2022/08/20 05:20:34;;;;;;;12.68;4.88;;;19.80;99.90;;;;;;5123444;27;20229;-37
2022/08/20 05:23:05;;;;;;;10.30;4.43;;;19.70;99.90;;;;;;5114011;27;20276;-38
2022/08/20 05:25:35;;;;;;;10.07;4.63;;;19.70;99.90;;;;;;5116585;27;20239;-37
2022/08/20 05:28:23;;;;;;;15.48;5.38;;;19.70;99.90;;;;;;5126941;27;21024;-37
2022/08/20 05:30:52;;;;;;;11.75;4.30;;;19.70;99.90;;;;;;5097882;28;20278;-37
2022/08/20 05:33:24;;;;;;;11.45;4.72;;;19.70;99.90;;;;;;5112906;28;20198;-36
2022/08/20 05:35:52;;;;;;;13.05;5.00;;;19.70;99.90;;;;;;5121168;27;20712;-37
2022/08/20 05:38:27;;;;;;;16.40;5.75;;;19.70;99.90;;;;;;5119343;27;20289;-37
2022/08/20 05:40:59;;;;;;;12.35;4.70;;;19.70;99.90;;;;;;5088945;28;20297;-36
2022/08/20 05:43:26;;;;;;;11.30;4.55;;;19.80;99.90;;;;;;5129331;27;20292;-37
2022/08/20 05:45:56;;;;;;;12.25;5.18;;;19.80;99.90;;;;;;5102812;28;20753;-37
2022/08/20 05:48:24;;;;;;;12.48;4.43;;;19.80;99.90;;;;;;5099338;28;20293;-37
2022/08/20 05:50:53;;;;;;;12.93;4.60;;;19.80;99.90;;;;;;5106381;28;20616;-37
2022/08/20 05:53:24;;;;;;;10.50;4.85;;;19.80;99.90;;;;;;5093402;28;20278;-37
2022/08/20 05:55:52;;;;;;;12.90;5.55;;;19.80;99.90;;;;;;5122460;28;20214;-37
2022/08/20 05:58:28;;;;;;;12.45;5.20;;;19.80;99.90;;;;;;5112511;28;20692;-37
2022/08/20 06:00:55;;;;;;;12.90;5.18;;;19.80;99.90;;;;;;5115782;27;20197;-37
2022/08/20 06:06:12;;;;;;;16.27;6.37;;;19.80;99.90;;;;;;5124786;27;20206;-37
2022/08/20 06:09:02;;;;;;;14.13;5.40;;;19.80;99.90;;;;;;5119953;28;20190;-38
2022/08/20 06:11:32;;;;;;;9.83;5.00;;;19.90;99.90;;;;;;5112812;28;20537;-38
2022/08/20 06:14:04;;;;;;;11.82;5.22;;;19.80;99.90;;;;;;5113859;28;20490;-37
2022/08/20 06:16:33;;;;;;;9.65;4.90;;;19.90;99.90;;;;;;5127403;27;20205;-38
2022/08/20 06:19:07;;;;;;;11.60;5.10;;;19.90;99.90;;;;;;5122523;28;20225;-37
2022/08/20 06:21:42;;;;;;;11.75;4.90;;;19.90;99.90;;;;;;5115294;27;20197;-38
2022/08/20 06:24:09;;;;;;;16.02;5.40;;;19.90;99.90;;;;;;5121888;28;20211;-38
2022/08/20 06:26:39;;;;;;;10.15;4.70;;;19.90;99.90;;;;;;5112080;27;20595;-38
2022/08/20 06:29:06;;;;;;;11.70;5.20;;;20.00;99.90;;;;;;5118838;27;20247;-38
2022/08/20 06:31:38;;;;;;;12.40;4.65;;;20.00;99.90;;;;;;5125179;27;20210;-37
2022/08/20 06:34:08;;;;;;;11.13;5.50;;;20.00;99.90;;;;;;5136341;27;20203;-38
2022/08/20 06:36:35;;;;;;;16.27;5.05;;;20.10;99.90;;;;;;5116392;27;20593;-40
2022/08/20 06:39:02;;;;;;;15.93;5.22;;;20.10;99.90;;;;;;5107825;28;20198;-40
2022/08/20 06:41:30;;;;;;;13.77;5.10;;;20.10;99.90;;;;;;5130782;27;20488;-40
2022/08/20 06:44:06;;;;;;;13.15;5.80;;;20.10;99.90;;;;;;5113727;27;20197;-40
2022/08/20 06:46:34;;;;;;;14.55;5.45;;;20.20;99.90;;;;;;5114280;27;20305;-40
2022/08/20 06:49:06;;;;;;;16.88;5.63;;;20.20;99.90;;;;;;5117280;27;20706;-39
2022/08/20 06:51:38;;;;;;;14.25;5.93;;;20.30;99.90;;;;;;5130937;27;20216;-40
2022/08/20 06:54:09;;;;;;;18.35;6.00;;;20.30;99.90;;;;;;5127095;27;20672;-40
2022/08/20 06:56:39;;;;;;;15.02;6.55;;;20.30;99.90;;;;;;5105471;28;20210;-40
2022/08/20 06:59:06;;;;;;;15.15;6.68;;;20.40;99.90;;;;;;5098342;27;20341;-40
2022/08/20 07:01:34;;;;;;;13.65;5.50;;;20.40;99.90;;;;;;5112715;27;20248;-40
2022/08/20 07:04:04;;;;;;;14.25;5.20;;;20.40;99.90;;;;;;5141169;27;20237;-40
2022/08/20 07:06:33;;;;;;;12.85;5.30;;;20.40;99.90;;;;;;5125227;27;20217;-37
2022/08/20 07:09:08;;;;;;;17.92;5.95;;;20.50;99.90;;;;;;5127576;27;20198;-38
2022/08/20 07:11:37;;;;;;;20.65;6.93;;;20.50;99.90;;;;;;5108966;27;20689;-37
2022/08/20 07:14:05;;;;;;;17.88;7.18;;;20.60;99.90;;;;;;5117430;27;20559;-37
2022/08/20 07:16:32;;;;;;;18.20;7.00;;;20.60;99.90;;;;;;5095041;27;20308;-38
2022/08/20 07:19:02;;;;;;;17.13;6.10;;;20.60;99.90;;;;;;5120849;27;20244;-38
2022/08/20 07:21:30;;;;;;;22.92;6.85;;;20.70;99.90;;;;;;5125344;27;20206;-40
2022/08/20 07:23:57;;;;;;;18.27;6.38;;;20.70;99.90;;;;;;5132036;27;20695;-40
2022/08/20 07:26:24;;;;;;;16.60;5.80;;;20.70;99.90;;;;;;5126914;27;20205;-40
2022/08/20 07:28:54;;;;;;;15.18;6.07;;;20.80;99.90;;;;;;5116476;27;20705;-40
2022/08/20 07:34:11;;;;;;;16.38;5.78;;;20.80;99.90;;;;;;5124418;27;20279;-39
2022/08/20 07:36:38;;;;;;;16.50;6.63;;;20.90;99.90;;;;;;5119974;27;20600;-40
2022/08/20 07:39:08;;;;;;;21.20;7.60;;;20.90;99.90;;;;;;5111471;27;20198;-40
2022/08/20 07:41:37;;;;;;;13.57;5.43;;;21.00;99.90;;;;;;5118154;27;20221;-40
2022/08/20 07:44:05;;;;;;;14.98;6.38;;;21.00;99.90;;;;;;5122806;27;20846;-39
2022/08/20 07:46:32;;;;;;;12.82;6.70;;;21.10;99.90;;;;;;5119011;27;20293;-39
2022/08/20 07:48:59;;;;;;;15.23;6.32;;;21.10;99.90;;;;;;5108401;27;20229;-40
2022/08/20 07:51:27;;;;;;;15.75;5.97;;;21.20;99.90;;;;;;5124180;27;20270;-40
2022/08/20 07:53:58;;;;;;;13.70;6.47;;;21.20;99.90;;;;;;5129017;27;20204;-40
2022/08/20 07:56:25;;;;;;;16.20;6.68;;;21.30;99.90;;;;;;5126028;27;20225;-40
2022/08/20 07:58:58;;;;;;;14.68;6.85;;;21.30;99.90;;;;;;5118066;27;20242;-39
2022/08/20 08:01:30;;;;;;;14.07;6.60;;;21.40;99.90;;;;;;5108841;27;20302;-40
2022/08/20 08:04:03;;;;;;;15.93;6.55;;;21.40;99.90;;;;;;5124754;27;20736;-40
2022/08/20 08:06:34;;;;;;;15.93;5.90;;;21.50;99.90;;;;;;5124994;27;20221;-37
2022/08/20 08:09:07;;;;;;;15.73;6.50;;;21.60;99.90;;;;;;5096463;27;20484;-37
2022/08/20 08:11:40;;;;;;;22.10;7.10;;;21.60;99.90;;;;;;5121077;27;20202;-36
2022/08/20 08:14:18;;;;;;;20.95;6.25;;;21.70;99.90;;;;;;5111312;27;20232;-37
2022/08/20 08:16:48;;;;;;;13.65;6.47;;;21.80;99.90;;;;;;5103150;27;20198;-36
2022/08/20 08:19:17;;;;;;;11.00;6.68;;;21.80;99.90;;;;;;5112144;27;20301;-36
2022/08/20 08:21:47;;;;;;;15.48;6.75;;;21.90;99.90;;;;;;5107335;27;20190;-36
2022/08/20 08:24:16;;;;;;;21.17;9.50;;;22.00;99.90;;;;;;5110442;27;20197;-36
2022/08/20 08:26:51;;;;;;;20.35;11.18;;;22.10;99.90;;;;;;5118855;27;20671;-36
2022/08/20 08:29:19;;;;;;;15.25;9.88;;;22.10;99.90;;;;;;5113519;27;20284;-36
2022/08/20 08:31:46;;;;;;;15.57;9.00;;;22.20;99.90;;;;;;5140027;27;20597;-36
2022/08/20 08:34:14;;;;;;;13.52;8.10;;;22.30;99.90;;;;;;5131782;27;20819;-38
2022/08/20 08:36:44;;;;;;;14.63;8.32;;;22.30;99.90;;;;;;5113209;27;20208;-38
2022/08/20 08:39:11;;;;;;;11.52;7.47;;;22.30;99.90;;;;;;5128856;27;20660;-48
2022/08/20 08:41:48;;;;;;;16.38;8.40;;;22.30;99.90;;;;;;5120112;27;20661;-40
2022/08/20 08:44:22;;;;;;;18.33;8.93;;;22.40;99.90;;;;;;5107432;28;20601;-40
2022/08/20 08:46:57;;;;;;;14.50;8.52;;;22.50;99.90;;;;;;5120249;27;20299;-40
2022/08/20 08:49:33;;;;;;;17.83;10.07;;;22.50;99.90;;;;;;5126236;27;20205;-40
2022/08/20 08:52:10;;;;;;;19.10;8.63;;;22.60;99.90;;;;;;5117206;27;20217;-40
2022/08/20 08:54:47;;;;;;;18.90;8.15;;;22.70;99.90;;;;;;5112707;27;20210;-40
2022/08/20 08:57:19;;;;;;;14.15;7.07;;;22.70;99.90;;;;;;5115233;27;20193;-40
2022/08/20 08:59:59;;;;;;;13.77;7.10;;;22.70;99.90;;;;;;5117151;27;20693;-40
2022/08/20 09:02:35;;;;;;;10.40;6.10;;;22.70;99.90;;;;;;5114827;27;20258;-40
2022/08/20 09:05:13;;;;;;;19.58;6.53;;;22.80;99.90;;;;;;5128413;27;20258;-39
2022/08/20 09:07:44;;;;;;;16.55;5.55;;;22.80;99.90;;;;;;5119095;27;20252;-40
2022/08/20 09:10:11;;;;;;;11.55;5.07;;;22.80;99.90;;;;;;5123124;27;20217;-39
2022/08/20 09:12:39;;;;;;;9.75;4.82;;;22.90;99.90;;;;;;5112361;27;20205;-38
2022/08/20 09:15:11;;;;;;;9.57;4.32;;;22.90;99.90;;;;;;5114116;27;20744;-39
2022/08/20 09:17:40;;;;;;;11.05;5.03;;;22.90;99.90;;;;;;5127393;27;20613;-39
2022/08/20 09:20:10;;;;;;;8.52;4.40;;;22.90;99.90;;;;;;5107657;28;20246;-39
2022/08/20 09:22:42;;;;;;;13.07;5.40;;;22.90;99.90;;;;;;5124977;27;20243;-39
2022/08/20 09:25:09;;;;;;;17.60;5.10;;;22.90;99.90;;;;;;5130611;27;20213;-39
2022/08/20 09:27:40;;;;;;;7.68;3.90;;;22.90;99.90;;;;;;5095220;28;20455;-40
2022/08/20 09:30:10;;;;;;;8.63;4.10;;;22.90;99.90;;;;;;5124703;27;20207;-39
2022/08/20 09:32:37;;;;;;;16.42;4.35;;;22.90;99.90;;;;;;5120282;28;20226;-39
2022/08/20 09:35:07;;;;;;;9.02;3.83;;;22.90;99.90;;;;;;5113878;27;20205;-39
2022/08/20 09:37:35;;;;;;;8.05;3.40;;;22.90;99.90;;;;;;5121279;27;20717;-38
2022/08/20 09:40:06;;;;;;;7.72;2.67;;;22.90;99.90;;;;;;5125796;27;20595;-39
2022/08/20 09:42:38;;;;;;;7.38;2.70;;;22.80;99.90;;;;;;5124998;28;20206;-39
2022/08/20 09:45:12;;;;;;;6.40;2.60;;;22.80;99.90;;;;;;5104221;28;20782;-41
2022/08/20 09:47:40;;;;;;;7.80;2.60;;;22.80;99.90;;;;;;5103409;27;20335;-39
2022/08/20 09:50:30;;;;;;;8.10;2.63;;;22.80;99.90;;;;;;5101685;28;20694;-39
2022/08/20 09:53:05;;;;;;;8.90;2.50;;;22.80;99.90;;;;;;5112737;28;20322;-41
2022/08/20 09:55:42;;;;;;;6.80;2.67;;;22.90;99.90;;;;;;5110643;28;20210;-41
2022/08/20 09:58:13;;;;;;;8.25;2.60;;;22.90;99.90;;;;;;5109531;28;20238;-41
2022/08/20 10:00:40;;;;;;;8.75;2.53;;;22.90;99.90;;;;;;5117327;27;20225;-41
2022/08/20 10:03:07;;;;;;;7.20;3.05;;;22.80;99.90;;;;;;5114497;28;20225;-41
2022/08/20 10:05:34;;;;;;;8.10;2.40;;;22.80;99.90;;;;;;5113043;28;20817;-40
2022/08/20 10:08:09;;;;;;;8.75;2.33;;;22.90;99.90;;;;;;5130986;27;20221;-40
2022/08/20 10:10:36;;;;;;;7.93;2.67;;;22.90;99.90;;;;;;5122615;27;20321;-40
2022/08/20 10:13:06;;;;;;;5.97;2.30;;;23.00;99.90;;;;;;5077319;28;20233;-40
2022/08/20 10:15:34;;;;;;;7.18;2.00;;;23.00;99.90;;;;;;5113946;27;20193;-40
2022/08/20 10:18:04;;;;;;;5.35;1.95;;;23.00;99.90;;;;;;5130924;27;20293;-40
2022/08/20 10:20:34;;;;;;;9.63;2.47;;;23.10;99.60;;;;;;5109713;28;20234;-40
2022/08/20 10:23:04;;;;;;;9.13;2.50;;;23.10;99.30;;;;;;5092115;27;20202;-41
2022/08/20 10:25:31;;;;;;;8.77;2.30;;;23.10;99.00;;;;;;5111959;27;20763;-41
2022/08/20 10:28:01;;;;;;;5.57;2.80;;;23.20;99.60;;;;;;5118865;27;20225;-40
2022/08/20 10:30:28;;;;;;;6.63;2.17;;;23.20;99.70;;;;;;5121212;27;20586;-41
2022/08/20 10:32:58;;;;;;;7.18;2.20;;;23.30;98.70;;;;;;5100383;27;20205;-39
2022/08/20 10:35:28;;;;;;;7.80;2.20;;;23.30;98.50;;;;;;5111767;27;20324;-39
2022/08/20 10:38:00;;;;;;;5.57;1.90;;;23.30;99.50;;;;;;5124043;27;20657;-39
2022/08/20 10:40:29;;;;;;;9.60;2.30;;;23.30;99.60;;;;;;5117817;27;20658;-39
2022/08/20 10:43:04;;;;;;;9.57;2.45;;;23.30;99.80;;;;;;5123165;27;20318;-39
2022/08/20 10:45:31;;;;;;;6.03;2.10;;;23.30;99.50;;;;;;5109366;27;20253;-39
2022/08/20 10:48:01;;;;;;;5.05;2.17;;;23.30;99.30;;;;;;5132208;27;20295;-39
2022/08/20 10:50:34;;;;;;;7.30;2.13;;;23.30;99.90;;;;;;5102143;27;20321;-47
2022/08/20 10:53:03;;;;;;;6.72;1.92;;;23.40;99.90;;;;;;5123584;27;20301;-40
2022/08/20 10:55:31;;;;;;;13.15;2.45;;;23.40;99.90;;;;;;5112017;27;20250;-41
2022/08/20 10:58:00;;;;;;;7.25;1.80;;;23.40;99.80;;;;;;5114715;27;20242;-40
2022/08/20 11:00:30;;;;;;;10.57;2.45;;;23.40;99.80;;;;;;5115200;27;20206;-41
2022/08/20 11:03:02;;;;;;;5.95;2.05;;;23.40;98.70;;;;;;5119493;27;20205;-41
2022/08/20 11:05:32;;;;;;;6.57;2.08;;;23.40;98.40;;;;;;5125947;27;20214;-41
2022/08/20 11:08:03;;;;;;;8.98;2.72;;;23.40;98.10;;;;;;5110987;27;20202;-41
2022/08/20 11:10:35;;;;;;;9.02;2.55;;;23.30;98.40;;;;;;5116469;27;20201;-42
2022/08/20 11:13:04;;;;;;;6.35;2.03;;;23.30;97.60;;;;;;5112536;27;20761;-41
2022/08/20 11:15:35;;;;;;;6.07;1.83;;;23.30;98.50;;;;;;5115380;27;20198;-40
2022/08/20 11:18:03;;;;;;;5.85;2.20;;;23.30;98.70;;;;;;5123454;27;20197;-41
2022/08/20 11:20:34;;;;;;;10.40;2.47;;;23.30;97.40;;;;;;5124596;27;20264;-41
2022/08/20 11:23:01;;;;;;;7.28;2.40;;;23.30;97.70;;;;;;5101387;27;20213;-41
2022/08/20 11:25:30;;;;;;;9.18;2.10;;;23.30;97.70;;;;;;5120441;27;20839;-42
2022/08/20 11:28:01;;;;;;;7.35;2.08;;;23.30;97.70;;;;;;5125101;27;20882;-41
2022/08/20 11:30:34;;;;;;;8.50;2.13;;;23.30;96.90;;;;;;5132866;27;20248;-42
2022/08/20 11:33:05;;;;;;;8.82;2.42;;;23.30;96.90;;;;;;5094095;27;20247;-41
2022/08/20 11:35:36;;;;;;;9.10;1.98;;;23.40;96.60;;;;;;5111254;27;20206;-41
2022/08/20 11:38:16;;;;;;;5.63;1.83;;;23.40;97.20;;;;;;5109138;27;20286;-41
2022/08/20 11:40:45;;;;;;;6.50;2.10;;;23.30;97.20;;;;;;5093065;27;20248;-42
2022/08/20 11:43:16;;;;;;;6.22;2.00;;;23.30;96.00;;;;;;5121236;27;20257;-41
2022/08/20 11:45:52;;;;;;;6.85;3.35;;;23.30;97.10;;;;;;5121610;27;20220;-41
2022/08/20 11:48:26;;;;;;;5.03;2.10;;;23.30;96.00;;;;;;5115858;27;20205;-40
2022/08/20 11:50:53;;;;;;;11.10;2.33;;;23.40;97.10;;;;;;5114905;27;20205;-40
2022/08/20 11:53:21;;;;;;;6.40;2.45;;;23.40;96.80;;;;;;5120027;27;20226;-41
2022/08/20 11:55:48;;;;;;;7.30;2.72;;;23.50;96.40;;;;;;5115157;27;20210;-40
2022/08/20 11:58:20;;;;;;;8.20;2.47;;;23.60;96.50;;;;;;5120357;27;20233;-40
2022/08/20 12:00:47;;;;;;;8.00;2.25;;;23.60;96.50;;;;;;5103473;27;20232;-40
2022/08/20 12:03:17;;;;;;;5.40;2.30;;;23.70;96.80;;;;;;5116494;27;20197;-40
2022/08/20 12:05:49;;;;;;;9.57;2.22;;;23.70;96.60;;;;;;5114738;27;20275;-41
2022/08/20 12:08:18;;;;;;;8.02;2.35;;;23.70;96.70;;;;;;5094395;27;20244;-41
2022/08/20 12:11:05;;;;;;;7.65;2.20;;;23.80;96.80;;;;;;5130708;27;20207;-41
2022/08/20 12:13:35;;;;;;;7.25;2.10;;;23.80;96.30;;;;;;5104615;27;20278;-40
2022/08/20 12:16:19;;;;;;;8.60;2.50;;;23.80;96.00;;;;;;5112919;27;20216;-40
2022/08/20 12:18:49;;;;;;;10.05;2.53;;;23.80;96.00;;;;;;5113642;27;20246;-41
2022/08/20 12:21:19;;;;;;;11.88;2.90;;;23.70;95.50;;;;;;5113180;27;20581;-41
2022/08/20 12:23:49;;;;;;;8.45;2.00;;;23.70;96.00;;;;;;5126643;27;20202;-41
2022/08/20 12:26:16;;;;;;;7.40;2.20;;;23.70;96.40;;;;;;5118784;27;20274;-41
2022/08/20 12:28:44;;;;;;;6.20;2.33;;;23.70;95.90;;;;;;5096041;27;20274;-40
2022/08/20 12:31:11;;;;;;;4.57;1.85;;;23.70;95.90;;;;;;5103262;27;20229;-40
2022/08/20 12:33:38;;;;;;;5.13;1.77;;;23.70;95.70;;;;;;5134543;27;20558;-41
2022/08/20 12:36:10;;;;;;;7.85;1.88;;;23.80;95.80;;;;;;5118727;27;20713;-41
2022/08/20 12:38:37;;;;;;;6.68;2.20;;;23.80;95.90;;;;;;5124038;27;20217;-41
2022/08/20 12:41:05;;;;;;;7.90;2.25;;;23.80;94.70;;;;;;5115103;27;20209;-41
2022/08/20 12:43:32;;;;;;;6.13;1.70;;;23.80;95.50;;;;;;5122835;27;20749;-41
2022/08/20 12:46:02;;;;;;;6.30;2.30;;;23.90;95.70;;;;;;5116407;27;20275;-42
2022/08/20 12:48:29;;;;;;;6.28;1.90;;;23.90;95.60;;;;;;5111574;27;20197;-42
2022/08/20 12:50:56;;;;;;;10.10;2.00;;;23.90;95.80;;;;;;5121843;27;20300;-42
2022/08/20 12:53:24;;;;;;;7.00;2.30;;;24.00;95.80;;;;;;5126256;27;20197;-42
2022/08/20 12:55:51;;;;;;;14.02;2.70;;;24.00;95.60;;;;;;5095705;28;20197;-42
2022/08/20 12:58:18;;;;;;;6.05;2.03;;;24.00;95.50;;;;;;5116124;27;20244;-38
2022/08/20 13:00:46;;;;;;;6.03;2.30;;;24.10;96.20;;;;;;5137507;27;20261;-37
2022/08/20 13:03:21;;;;;;;10.70;2.60;;;24.20;96.50;;;;;;5125572;27;20628;-37
2022/08/20 13:05:49;;;;;;;6.20;2.08;;;24.20;95.70;;;;;;5126444;27;20557;-38
2022/08/20 13:08:18;;;;;;;6.00;2.10;;;24.30;94.70;;;;;;5119213;27;20717;-38